Time;durP1;ratioP1;P1;durP2;ratioP2;P2;SDS_P1;SDS_P2;PMS_P1;PMS_P2;Temp;Humidity;BMP_temperature;BMP_pressure;BME280_temperature;BME280_humidity;BME280_pressure;Samples;Min_cycle;Max_cycle;Signal;HPM_P1;HPM_P2
2022/08/17 00:01:28;;;;;;;9.05;4.68;;;;;;;;;;5008049;28;20113;-79
2022/08/17 00:04:03;;;;;;;6.90;4.90;;;;;;;;;;5008446;28;20042;-79
2022/08/17 00:06:37;;;;;;;7.55;4.45;;;;;;;;;;5008073;28;20085;-79
2022/08/17 00:09:04;;;;;;;7.22;4.43;;;;;;;;;;5008378;28;20058;-79
2022/08/17 00:11:36;;;;;;;7.38;4.28;;;;;;;;;;5007877;28;20042;-79
2022/08/17 00:14:22;;;;;;;7.95;4.65;;;;;;;;;;4988823;28;20073;-81
2022/08/17 00:16:50;;;;;;;7.95;5.03;;;;;;;;;;5006459;28;20054;-79
2022/08/17 00:19:23;;;;;;;10.32;4.78;;;;;;;;;;4989677;28;20602;-78
2022/08/17 00:21:50;;;;;;;8.93;4.40;;;;;;;;;;5009461;28;20046;-77
2022/08/17 00:24:37;;;;;;;6.95;4.25;;;;;;;;;;5009052;28;20068;-80
2022/08/17 00:27:03;;;;;;;6.93;4.40;;;;;;;;;;5010125;28;20061;-81
2022/08/17 00:29:30;;;;;;;7.63;4.32;;;;;;;;;;5009558;28;20054;-81
2022/08/17 00:31:56;;;;;;;10.10;4.40;;;;;;;;;;5008934;28;20054;-81
2022/08/17 00:34:24;;;;;;;9.65;4.68;;;;;;;;;;5008475;28;20057;-79
2022/08/17 00:36:53;;;;;;;7.10;4.22;;;;;;;;;;5007544;28;20042;-79
2022/08/17 00:39:19;;;;;;;7.05;4.30;;;;;;;;;;5008102;28;20050;-78
2022/08/17 00:41:46;;;;;;;8.05;4.55;;;;;;;;;;5008136;28;20046;-79
2022/08/17 00:44:13;;;;;;;6.57;4.35;;;;;;;;;;5009858;28;20057;-78
2022/08/17 00:46:41;;;;;;;6.45;4.13;;;;;;;;;;5009682;28;20447;-79
2022/08/17 00:49:08;;;;;;;9.25;4.15;;;;;;;;;;5010624;28;20038;-80
2022/08/17 00:51:42;;;;;;;10.07;4.20;;;;;;;;;;5009124;28;20081;-80
2022/08/17 00:54:10;;;;;;;6.47;4.32;;;;;;;;;;5010741;28;20050;-79
2022/08/17 00:56:40;;;;;;;11.75;4.60;;;;;;;;;;5023672;28;20049;-79
2022/08/17 00:59:07;;;;;;;9.68;4.75;;;;;;;;;;5026150;28;20049;-80
2022/08/17 01:01:36;;;;;;;10.73;4.85;;;;;;;;;;5028222;28;20060;-81
2022/08/17 01:04:04;;;;;;;7.40;5.10;;;;;;;;;;5027814;28;20104;-80
2022/08/17 01:06:31;;;;;;;8.60;4.93;;;;;;;;;;5028521;28;20038;-79
2022/08/17 01:09:00;;;;;;;9.88;5.20;;;;;;;;;;5011036;28;20064;-79
2022/08/17 01:11:26;;;;;;;9.57;4.80;;;;;;;;;;5001146;28;20069;-79
2022/08/17 01:13:53;;;;;;;9.35;5.03;;;;;;;;;;5010382;28;20050;-80
2022/08/17 01:16:22;;;;;;;9.73;5.00;;;;;;;;;;5009273;28;20050;-79
2022/08/17 01:18:50;;;;;;;5.60;4.72;;;;;;;;;;5010021;28;20265;-79
2022/08/17 01:21:23;;;;;;;11.02;5.05;;;;;;;;;;5009291;28;20042;-79
2022/08/17 01:23:49;;;;;;;8.32;5.22;;;;;;;;;;5006654;28;20050;-79
2022/08/17 01:26:16;;;;;;;10.50;5.55;;;;;;;;;;5006184;28;20057;-79
2022/08/17 01:28:43;;;;;;;8.20;5.07;;;;;;;;;;4976723;28;20070;-79
2022/08/17 01:31:20;;;;;;;10.60;5.63;;;;;;;;;;4997180;28;20556;-79
2022/08/17 01:33:47;;;;;;;10.80;5.90;;;;;;;;;;4975116;28;20054;-79
2022/08/17 01:36:13;;;;;;;8.52;5.68;;;;;;;;;;4994641;28;20053;-79
2022/08/17 01:38:40;;;;;;;10.05;6.03;;;;;;;;;;4994754;28;20477;-78
2022/08/17 01:41:10;;;;;;;8.02;5.88;;;;;;;;;;4995455;28;20058;-78
2022/08/17 01:43:40;;;;;;;11.95;5.78;;;;;;;;;;4996609;28;20042;-78
2022/08/17 01:46:06;;;;;;;8.15;5.43;;;;;;;;;;4995360;28;20607;-78
2022/08/17 01:48:34;;;;;;;11.65;7.03;;;;;;;;;;4998567;28;20058;-79
2022/08/17 01:51:01;;;;;;;11.63;6.07;;;;;;;;;;4998946;28;20654;-80
2022/08/17 01:53:33;;;;;;;9.00;5.75;;;;;;;;;;4999597;28;20065;-79
2022/08/17 01:56:04;;;;;;;10.00;5.95;;;;;;;;;;4989709;28;20507;-78
2022/08/17 01:58:31;;;;;;;12.93;6.50;;;;;;;;;;4982830;28;20046;-78
2022/08/17 02:00:57;;;;;;;8.90;5.60;;;;;;;;;;5000624;28;20046;-78
2022/08/17 02:03:26;;;;;;;9.18;5.18;;;;;;;;;;5000525;28;20506;-79
2022/08/17 02:05:53;;;;;;;8.25;5.68;;;;;;;;;;5007830;28;20077;-79
2022/08/17 02:08:20;;;;;;;8.07;5.55;;;;;;;;;;5005726;28;20086;-79
2022/08/17 02:11:10;;;;;;;10.23;6.07;;;;;;;;;;5000252;28;20054;-79
2022/08/17 02:13:37;;;;;;;9.07;5.78;;;;;;;;;;4981713;28;20050;-79
2022/08/17 02:16:04;;;;;;;10.02;6.00;;;;;;;;;;4982609;28;20053;-80
2022/08/17 02:18:31;;;;;;;9.23;5.82;;;;;;;;;;4982720;28;20050;-80
2022/08/17 02:20:57;;;;;;;10.40;5.43;;;;;;;;;;4981275;28;20058;-79
2022/08/17 02:23:25;;;;;;;9.02;5.90;;;;;;;;;;4982212;28;20070;-79
2022/08/17 02:25:52;;;;;;;7.75;5.15;;;;;;;;;;4982103;28;20066;-79
2022/08/17 02:28:20;;;;;;;7.97;5.15;;;;;;;;;;4981470;28;20058;-79
2022/08/17 02:30:47;;;;;;;9.57;5.68;;;;;;;;;;4978805;28;20082;-78
2022/08/17 02:33:27;;;;;;;10.05;5.65;;;;;;;;;;4979603;28;20566;-79
2022/08/17 02:36:09;;;;;;;9.07;5.95;;;;;;;;;;4976131;28;20113;-79
2022/08/17 02:38:36;;;;;;;7.00;5.53;;;;;;;;;;4977389;28;20520;-77
2022/08/17 02:41:03;;;;;;;9.23;6.25;;;;;;;;;;4982176;28;20058;-78
2022/08/17 02:43:30;;;;;;;9.43;6.05;;;;;;;;;;4981489;28;20055;-78
2022/08/17 02:45:56;;;;;;;7.75;6.07;;;;;;;;;;4982286;28;20055;-79
2022/08/17 02:48:23;;;;;;;9.27;5.80;;;;;;;;;;4984773;28;20369;-79
2022/08/17 02:50:57;;;;;;;8.93;6.32;;;;;;;;;;4985507;28;20049;-78
2022/08/17 02:53:24;;;;;;;8.35;6.07;;;;;;;;;;5002969;28;20078;-78
2022/08/17 02:55:51;;;;;;;10.70;6.95;;;;;;;;;;5013925;28;20110;-80
2022/08/17 02:58:19;;;;;;;11.13;6.57;;;;;;;;;;5024120;28;20128;-79
2022/08/17 03:01:02;;;;;;;10.82;6.32;;;;;;;;;;5026250;28;20079;-79
2022/08/17 03:03:28;;;;;;;10.13;6.45;;;;;;;;;;5026633;28;20042;-81
2022/08/17 03:05:55;;;;;;;8.70;6.25;;;;;;;;;;5026027;28;20050;-80
2022/08/17 03:08:22;;;;;;;11.13;6.95;;;;;;;;;;5025760;28;20046;-80
2022/08/17 03:10:49;;;;;;;11.48;7.20;;;;;;;;;;5021481;28;20088;-78
2022/08/17 03:13:16;;;;;;;10.38;6.78;;;;;;;;;;4998148;28;20097;-78
2022/08/17 03:15:44;;;;;;;13.98;7.45;;;;;;;;;;5015459;28;20046;-78
2022/08/17 03:18:15;;;;;;;11.68;6.85;;;;;;;;;;5008130;28;20046;-78
2022/08/17 03:20:56;;;;;;;14.55;7.53;;;;;;;;;;5010128;28;20101;-79
2022/08/17 03:23:24;;;;;;;9.65;6.18;;;;;;;;;;5002093;28;20058;-78
2022/08/17 03:25:51;;;;;;;14.65;6.93;;;;;;;;;;5009956;28;20054;-79
2022/08/17 03:28:20;;;;;;;10.27;7.05;;;;;;;;;;5010292;28;20116;-80
2022/08/17 03:30:46;;;;;;;10.00;7.13;;;;;;;;;;4992621;28;20035;-80
2022/08/17 03:33:13;;;;;;;11.07;6.93;;;;;;;;;;5007475;28;20097;-79
2022/08/17 03:35:40;;;;;;;10.73;6.55;;;;;;;;;;5009892;28;20046;-79
2022/08/17 03:38:07;;;;;;;14.25;7.35;;;;;;;;;;5008320;28;20054;-78
2022/08/17 03:40:34;;;;;;;12.82;7.43;;;;;;;;;;5008999;28;20046;-78
2022/08/17 03:43:21;;;;;;;12.55;6.80;;;;;;;;;;5008866;28;20138;-79
2022/08/17 03:57:09;;;;;;;11.13;7.25;;;;;;;;;;5018164;28;20100;-81
2022/08/17 03:59:36;;;;;;;11.10;7.88;;;;;;;;;;5024650;28;20054;-79
2022/08/17 04:02:08;;;;;;;10.82;7.57;;;;;;;;;;5027720;28;20042;-80
2022/08/17 04:04:35;;;;;;;9.73;7.57;;;;;;;;;;5030609;28;20069;-79
2022/08/17 04:07:02;;;;;;;11.98;7.40;;;;;;;;;;5025660;28;20454;-81
2022/08/17 04:09:28;;;;;;;10.15;7.65;;;;;;;;;;5033468;28;20053;-80
2022/08/17 04:11:56;;;;;;;12.57;8.52;;;;;;;;;;5019978;28;20281;-78
2022/08/17 04:14:29;;;;;;;11.02;8.32;;;;;;;;;;5013456;28;20042;-78
2022/08/17 04:16:56;;;;;;;12.52;8.73;;;;;;;;;;5014761;28;20049;-78
2022/08/17 04:19:22;;;;;;;13.57;8.50;;;;;;;;;;5014988;28;20034;-79
2022/08/17 04:21:49;;;;;;;18.30;8.98;;;;;;;;;;5014529;28;20042;-80
2022/08/17 04:24:15;;;;;;;15.25;8.75;;;;;;;;;;5013474;28;20121;-78
2022/08/17 04:26:42;;;;;;;13.20;8.75;;;;;;;;;;5006513;28;20076;-79
2022/08/17 04:29:20;;;;;;;15.65;8.45;;;;;;;;;;5006871;28;20059;-79
2022/08/17 04:31:46;;;;;;;13.93;8.40;;;;;;;;;;5006644;28;20050;-81
2022/08/17 04:34:13;;;;;;;12.63;8.63;;;;;;;;;;5007517;28;20054;-81
2022/08/17 04:36:44;;;;;;;11.63;8.15;;;;;;;;;;4989806;28;20093;-79
2022/08/17 04:39:15;;;;;;;10.98;7.50;;;;;;;;;;5006593;28;20110;-79
2022/08/17 04:44:27;;;;;;;11.77;8.20;;;;;;;;;;5008633;28;20066;-78
2022/08/17 04:47:03;;;;;;;;;;;;;;;;;;5008210;28;20081;-78
2022/08/17 04:49:29;;;;;;;12.60;7.45;;;;;;;;;;5008733;28;19922;-78
2022/08/17 04:51:56;;;;;;;16.67;8.13;;;;;;;;;;5007902;28;20050;-78
2022/08/17 04:54:27;;;;;;;15.05;7.72;;;;;;;;;;5013829;28;20081;-77
2022/08/17 04:56:54;;;;;;;12.88;8.43;;;;;;;;;;5023082;28;20037;-78
2022/08/17 04:59:21;;;;;;;17.67;7.82;;;;;;;;;;5030058;28;20120;-80
2022/08/17 05:01:49;;;;;;;20.45;8.02;;;;;;;;;;5029742;28;20050;-80
2022/08/17 05:04:23;;;;;;;13.52;8.00;;;;;;;;;;5030830;28;20049;-78
2022/08/17 05:07:00;;;;;;;10.00;7.15;;;;;;;;;;4998599;28;20042;-79
2022/08/17 05:09:27;;;;;;;13.52;7.35;;;;;;;;;;5006513;28;20050;-80
2022/08/17 05:11:54;;;;;;;14.13;7.07;;;;;;;;;;5000241;28;20057;-80
2022/08/17 05:14:21;;;;;;;13.32;6.60;;;;;;;;;;4999897;28;20050;-81
2022/08/17 05:16:58;;;;;;;17.63;7.97;;;;;;;;;;5000743;28;20063;-81
2022/08/17 05:19:26;;;;;;;10.75;7.15;;;;;;;;;;5001305;28;20049;-80
2022/08/17 05:21:53;;;;;;;8.63;6.13;;;;;;;;;;5000528;28;20047;-81
2022/08/17 05:24:19;;;;;;;12.48;6.60;;;;;;;;;;5000823;28;20071;-81
2022/08/17 05:27:06;;;;;;;18.25;7.68;;;;;;;;;;4999278;28;20054;-80
2022/08/17 05:29:32;;;;;;;16.60;7.80;;;;;;;;;;4997207;28;20055;-81
2022/08/17 05:32:10;;;;;;;11.88;7.82;;;;;;;;;;4997343;28;20054;-80
2022/08/17 05:34:58;;;;;;;13.40;7.70;;;;;;;;;;4997447;28;20065;-80
2022/08/17 05:37:27;;;;;;;18.80;7.68;;;;;;;;;;4997242;28;20054;-79
2022/08/17 05:39:53;;;;;;;12.15;6.80;;;;;;;;;;4995278;28;20101;-79
2022/08/17 05:42:20;;;;;;;12.95;6.88;;;;;;;;;;4994760;28;20479;-78
2022/08/17 05:44:47;;;;;;;12.30;6.88;;;;;;;;;;4994902;28;20074;-80
2022/08/17 05:47:13;;;;;;;17.10;7.53;;;;;;;;;;4994010;28;20046;-81
2022/08/17 05:49:40;;;;;;;9.32;7.22;;;;;;;;;;4995440;28;20100;-80
2022/08/17 05:52:17;;;;;;;13.27;6.60;;;;;;;;;;4998941;28;20054;-80
2022/08/17 05:54:57;;;;;;;16.73;6.75;;;;;;;;;;5006409;28;20050;-81
2022/08/17 05:57:33;;;;;;;14.02;6.80;;;;;;;;;;5011001;28;20755;-81
2022/08/17 05:59:59;;;;;;;;;;;;;;;;;;5019446;28;20056;-82
2022/08/17 06:02:42;;;;;;;10.50;6.03;;;;;;;;;;5021545;28;20056;-81
2022/08/17 06:05:21;;;;;;;10.27;5.55;;;;;;;;;;5022643;28;20054;-81
2022/08/17 06:07:51;;;;;;;12.07;5.78;;;;;;;;;;5018367;28;20430;-81
2022/08/17 06:10:24;;;;;;;7.72;5.53;;;;;;;;;;5019475;28;20212;-81
2022/08/17 06:12:50;;;;;;;10.93;5.95;;;;;;;;;;5001030;28;20061;-80
2022/08/17 06:15:23;;;;;;;8.55;4.88;;;;;;;;;;5000703;28;20073;-81
2022/08/17 06:17:56;;;;;;;10.15;5.22;;;;;;;;;;5000553;28;20117;-81
2022/08/17 06:20:24;;;;;;;9.55;4.55;;;;;;;;;;5000676;28;20109;-82
2022/08/17 06:22:52;;;;;;;8.45;4.63;;;;;;;;;;5000070;28;20104;-82
2022/08/17 06:25:21;;;;;;;10.85;4.70;;;;;;;;;;5000558;28;20050;-81
2022/08/17 06:27:50;;;;;;;9.10;4.60;;;;;;;;;;5010503;28;20038;-81
2022/08/17 06:30:21;;;;;;;8.75;4.50;;;;;;;;;;5017244;28;20065;-81
2022/08/17 06:32:48;;;;;;;11.57;4.50;;;;;;;;;;5010023;28;20051;-79
2022/08/17 06:35:17;;;;;;;8.32;4.57;;;;;;;;;;5000642;28;20572;-80
2022/08/17 06:37:49;;;;;;;8.82;4.63;;;;;;;;;;4999567;28;20050;-79
2022/08/17 06:40:31;;;;;;;9.52;4.72;;;;;;;;;;5001399;28;20078;-80
2022/08/17 06:43:00;;;;;;;8.80;4.05;;;;;;;;;;5000570;28;20077;-80
2022/08/17 06:45:41;;;;;;;8.25;4.22;;;;;;;;;;4993216;28;20050;-78
2022/08/17 06:48:25;;;;;;;9.88;4.22;;;;;;;;;;4991204;28;20546;-78
2022/08/17 06:50:58;;;;;;;10.23;4.30;;;;;;;;;;4991708;28;20081;-79
2022/08/17 06:53:28;;;;;;;8.43;3.78;;;;;;;;;;4999974;28;20113;-80
2022/08/17 06:55:54;;;;;;;13.25;4.40;;;;;;;;;;5007702;28;20054;-79
2022/08/17 06:58:22;;;;;;;13.75;4.13;;;;;;;;;;5017715;28;20050;-80
2022/08/17 07:00:57;;;;;;;10.52;4.10;;;;;;;;;;5023350;28;20132;-80
2022/08/17 07:03:36;;;;;;;12.73;3.70;;;;;;;;;;5023531;28;20049;-80
2022/08/17 07:06:09;;;;;;;9.10;3.45;;;;;;;;;;5023585;28;20053;-80
2022/08/17 07:08:36;;;;;;;11.27;3.80;;;;;;;;;;5023833;28;20050;-80
2022/08/17 07:11:05;;;;;;;13.82;4.13;;;;;;;;;;5017240;28;20081;-80
2022/08/17 07:13:52;;;;;;;10.35;3.80;;;;;;;;;;5005665;28;20092;-80
2022/08/17 07:16:22;;;;;;;5.38;3.40;;;;;;;;;;5006754;28;20467;-80
2022/08/17 07:18:50;;;;;;;9.27;3.33;;;;;;;;;;5004598;28;20046;-79
2022/08/17 07:21:20;;;;;;;5.03;3.08;;;;;;;;;;5003698;28;20042;-80
2022/08/17 07:24:01;;;;;;;11.13;3.67;;;;;;;;;;5004457;28;20209;-80
2022/08/17 07:26:28;;;;;;;10.27;3.33;;;;;;;;;;5007442;28;20069;-80
2022/08/17 07:28:55;;;;;;;9.45;3.13;;;;;;;;;;5005543;28;20050;-82
2022/08/17 07:31:23;;;;;;;4.18;2.90;;;;;;;;;;5001889;28;20117;-79
2022/08/17 07:34:05;;;;;;;5.65;2.92;;;;;;;;;;5002742;28;20109;-80
2022/08/17 07:36:33;;;;;;;6.32;2.72;;;;;;;;;;5003084;28;20059;-79
2022/08/17 07:39:01;;;;;;;11.85;3.13;;;;;;;;;;5003572;28;20575;-79
2022/08/17 07:41:29;;;;;;;7.22;2.83;;;;;;;;;;5003276;28;20069;-78
2022/08/17 07:44:15;;;;;;;11.27;3.25;;;;;;;;;;4999770;28;20056;-79
2022/08/17 07:49:53;;;;;;;8.20;3.15;;;;;;;;;;4946988;29;20055;-79
2022/08/17 07:52:28;;;;;;;6.40;2.55;;;;;;;;;;4987949;28;20487;-79
2022/08/17 07:55:29;;;;;;;7.13;2.78;;;;;;;;;;5008389;28;20053;-80
2022/08/17 07:57:57;;;;;;;5.82;2.72;;;;;;;;;;5015497;28;20085;-80
2022/08/17 08:00:23;;;;;;;7.65;2.55;;;;;;;;;;5020529;28;20077;-81
2022/08/17 08:03:18;;;;;;;6.18;2.78;;;;;;;;;;5019393;28;20114;-81
2022/08/17 08:05:49;;;;;;;11.05;2.72;;;;;;;;;;5019475;28;20430;-81
2022/08/17 08:08:25;;;;;;;6.68;2.58;;;;;;;;;;5021827;28;20064;-79
2022/08/17 08:11:04;;;;;;;9.27;2.50;;;;;;;;;;5016191;28;20467;-81
2022/08/17 08:13:31;;;;;;;6.60;2.72;;;;;;;;;;5000620;28;20054;-78
2022/08/17 08:16:23;;;;;;;5.75;2.60;;;;;;;;;;5001227;28;20518;-81
2022/08/17 08:18:52;;;;;;;4.72;2.30;;;;;;;;;;5001937;28;20486;-80
2022/08/17 08:21:23;;;;;;;6.00;2.85;;;;;;;;;;5003831;28;20055;-81
2022/08/17 08:23:56;;;;;;;6.63;2.60;;;;;;;;;;5001990;28;20050;-81
2022/08/17 08:26:41;;;;;;;7.75;2.35;;;;;;;;;;5003356;28;20046;-79
2022/08/17 08:29:26;;;;;;;7.68;3.17;;;;;;;;;;5001616;28;20518;-80
2022/08/17 08:32:12;;;;;;;9.13;2.70;;;;;;;;;;5001666;28;20054;-81
2022/08/17 08:34:44;;;;;;;7.32;2.75;;;;;;;;;;5004597;28;20042;-82
2022/08/17 08:37:31;;;;;;;5.75;2.58;;;;;;;;;;5002767;28;20105;-80
2022/08/17 08:40:23;;;;;;;6.80;2.80;;;;;;;;;;5003873;28;20050;-81
2022/08/17 08:43:03;;;;;;;11.27;2.63;;;;;;;;;;5004898;28;20154;-79
2022/08/17 08:45:32;;;;;;;7.40;2.60;;;;;;;;;;5003317;28;20049;-81
2022/08/17 08:48:12;;;;;;;11.23;2.90;;;;;;;;;;4985694;28;20054;-80
2022/08/17 08:51:01;;;;;;;4.90;2.88;;;;;;;;;;5004812;28;20145;-79
2022/08/17 08:53:33;;;;;;;6.90;2.70;;;;;;;;;;5004423;28;20046;-79
2022/08/17 08:56:00;;;;;;;5.13;2.58;;;;;;;;;;4994633;28;20062;-79
2022/08/17 08:58:38;;;;;;;4.85;2.53;;;;;;;;;;5023442;28;20049;-80
2022/08/17 09:01:26;;;;;;;10.68;2.78;;;;;;;;;;5024042;28;20132;-80
2022/08/17 09:03:58;;;;;;;9.02;2.90;;;;;;;;;;5024704;28;20049;-81
2022/08/17 09:06:51;;;;;;;8.52;2.90;;;;;;;;;;5024633;28;20053;-80
2022/08/17 09:09:20;;;;;;;10.70;2.70;;;;;;;;;;5021501;28;20050;-79
2022/08/17 09:12:06;;;;;;;4.90;2.30;;;;;;;;;;5008089;28;20101;-80
2022/08/17 09:14:36;;;;;;;7.60;2.63;;;;;;;;;;4998708;28;20057;-80
2022/08/17 09:17:14;;;;;;;6.30;2.22;;;;;;;;;;4999827;28;20054;-79
2022/08/17 09:19:45;;;;;;;5.53;2.70;;;;;;;;;;5003842;28;20046;-80
2022/08/17 09:22:25;;;;;;;6.13;2.58;;;;;;;;;;5005346;28;20058;-80
2022/08/17 09:24:55;;;;;;;8.80;2.80;;;;;;;;;;5005424;28;20078;-79
2022/08/17 09:27:27;;;;;;;7.53;2.42;;;;;;;;;;5011542;28;20042;-80
2022/08/17 09:29:57;;;;;;;8.18;2.40;;;;;;;;;;5007723;28;20046;-79
2022/08/17 09:32:32;;;;;;;3.47;2.20;;;;;;;;;;5010424;28;20061;-79
2022/08/17 09:35:04;;;;;;;6.65;2.47;;;;;;;;;;5009791;28;20057;-80
2022/08/17 09:37:34;;;;;;;3.45;2.40;;;;;;;;;;5009598;28;20093;-80
2022/08/17 09:40:20;;;;;;;4.38;2.05;;;;;;;;;;5009223;28;20050;-79
2022/08/17 09:43:03;;;;;;;3.63;2.00;;;;;;;;;;5010800;28;20034;-79
2022/08/17 09:45:48;;;;;;;4.38;1.98;;;;;;;;;;5011599;28;20046;-79
2022/08/17 09:48:17;;;;;;;6.10;2.05;;;;;;;;;;5010639;28;20046;-78
2022/08/17 09:51:03;;;;;;;5.88;2.15;;;;;;;;;;5010173;28;20046;-79
2022/08/17 09:53:34;;;;;;;7.93;2.03;;;;;;;;;;5009571;28;20046;-79
2022/08/17 09:56:13;;;;;;;4.47;2.20;;;;;;;;;;4998765;28;20050;-82
2022/08/17 09:58:59;;;;;;;4.28;2.25;;;;;;;;;;4989888;28;20045;-79
2022/08/17 10:01:30;;;;;;;3.60;1.95;;;;;;;;;;4989190;28;20097;-80
2022/08/17 10:04:00;;;;;;;4.63;1.95;;;;;;;;;;4989848;28;20530;-80
2022/08/17 10:06:29;;;;;;;3.58;1.92;;;;;;;;;;4986886;28;20047;-79
2022/08/17 10:09:08;;;;;;;5.63;2.10;;;;;;;;;;4988218;28;20046;-78
2022/08/17 10:14:36;;;;;;;5.25;2.20;;;;;;;;;;5008139;28;20034;-80
2022/08/17 10:17:10;;;;;;;;;;;;;;;;;;5009077;28;20057;-80
2022/08/17 10:19:42;;;;;;;4.32;2.38;;;;;;;;;;5005555;28;19921;-79
2022/08/17 10:28:24;;;;;;;4.45;1.98;;;;;;;;;;5003815;28;20057;-80
2022/08/17 10:30:56;;;;;;;6.53;1.77;;;;;;;;;;5002933;28;20054;-80
2022/08/17 10:33:49;;;;;;;9.23;2.08;;;;;;;;;;5003629;28;20591;-80
2022/08/17 10:36:36;;;;;;;7.65;2.10;;;;;;;;;;5003249;28;20054;-80
2022/08/17 10:39:15;;;;;;;3.97;2.15;;;;;;;;;;4977222;28;20086;-80
2022/08/17 10:41:43;;;;;;;9.52;2.42;;;;;;;;;;5001650;28;20046;-78
2022/08/17 10:44:10;;;;;;;5.05;2.28;;;;;;;;;;5003615;28;20697;-78
2022/08/17 10:47:05;;;;;;;5.25;1.95;;;;;;;;;;5001152;28;20135;-80
2022/08/17 10:49:33;;;;;;;6.22;2.10;;;;;;;;;;5001212;28;20088;-79
2022/08/17 10:52:01;;;;;;;4.82;2.03;;;;;;;;;;5004070;28;20050;-79
2022/08/17 10:54:44;;;;;;;7.25;2.15;;;;;;;;;;5005634;28;20479;-80
2022/08/17 10:57:30;;;;;;;6.07;2.08;;;;;;;;;;5013553;28;20057;-79
2022/08/17 10:59:57;;;;;;;5.03;1.92;;;;;;;;;;5022531;28;20105;-79
2022/08/17 11:02:25;;;;;;;4.70;2.20;;;;;;;;;;5023555;28;20054;-80
2022/08/17 11:05:05;;;;;;;4.07;1.95;;;;;;;;;;5006651;28;20050;-80
2022/08/17 11:07:34;;;;;;;5.35;2.20;;;;;;;;;;5023012;28;20042;-78
2022/08/17 11:10:12;;;;;;;9.70;2.00;;;;;;;;;;5018884;28;20116;-79
2022/08/17 11:12:59;;;;;;;5.25;1.98;;;;;;;;;;4982147;28;20051;-79
2022/08/17 11:15:26;;;;;;;4.38;2.10;;;;;;;;;;4984525;28;20412;-79
2022/08/17 11:17:57;;;;;;;9.05;2.08;;;;;;;;;;4985958;28;20118;-78
2022/08/17 11:20:37;;;;;;;5.93;2.20;;;;;;;;;;4969779;28;20138;-78
2022/08/17 11:23:03;;;;;;;10.38;2.40;;;;;;;;;;4984214;28;20058;-80
2022/08/17 11:25:37;;;;;;;3.83;2.30;;;;;;;;;;4965612;28;20491;-80
2022/08/17 11:28:05;;;;;;;2.45;1.90;;;;;;;;;;4982888;28;20499;-80
2022/08/17 11:30:41;;;;;;;5.53;2.30;;;;;;;;;;4982313;28;20066;-79
2022/08/17 11:33:43;;;;;;;4.85;2.03;;;;;;;;;;4983588;28;20516;-80
2022/08/17 11:36:22;;;;;;;8.60;2.25;;;;;;;;;;4945952;28;20074;-80
2022/08/17 11:39:00;;;;;;;5.20;2.20;;;;;;;;;;4982656;28;20538;-80
2022/08/17 11:41:36;;;;;;;4.25;2.40;;;;;;;;;;4984053;28;20046;-80
2022/08/17 11:44:06;;;;;;;4.57;2.20;;;;;;;;;;4982329;28;20071;-79
2022/08/17 11:52:35;;;;;;;5.32;2.30;;;;;;;;;;4965892;28;20051;-83
2022/08/17 11:55:05;;;;;;;4.10;2.17;;;;;;;;;;5011987;28;20046;-81
2022/08/17 11:57:57;;;;;;;2.72;2.20;;;;;;;;;;5024220;28;20121;-80
2022/08/17 12:00:42;;;;;;;4.80;2.33;;;;;;;;;;5027011;28;20141;-80
2022/08/17 12:03:25;;;;;;;4.47;2.40;;;;;;;;;;5028828;28;20061;-80
2022/08/17 12:06:00;;;;;;;9.88;2.40;;;;;;;;;;5029379;28;20050;-79
2022/08/17 12:08:31;;;;;;;9.55;2.47;;;;;;;;;;5028802;28;20506;-80
2022/08/17 12:11:00;;;;;;;5.13;2.28;;;;;;;;;;5020056;28;20089;-80
2022/08/17 12:13:28;;;;;;;4.43;2.38;;;;;;;;;;5009787;28;20093;-80
2022/08/17 12:16:06;;;;;;;10.40;2.20;;;;;;;;;;5004165;28;20054;-79
2022/08/17 12:18:36;;;;;;;4.57;2.40;;;;;;;;;;5010264;28;20108;-80
2022/08/17 12:21:18;;;;;;;6.63;2.20;;;;;;;;;;5009685;28;20050;-81
2022/08/17 12:23:51;;;;;;;7.65;2.60;;;;;;;;;;5008723;28;20110;-80
2022/08/17 12:26:19;;;;;;;6.43;2.38;;;;;;;;;;5004907;28;20130;-79
2022/08/17 12:28:46;;;;;;;5.97;2.28;;;;;;;;;;5004972;28;20046;-80
2022/08/17 12:31:33;;;;;;;4.40;2.03;;;;;;;;;;5002056;28;20046;-80
2022/08/17 12:34:00;;;;;;;5.13;2.40;;;;;;;;;;5005797;28;20046;-79
2022/08/17 12:36:27;;;;;;;6.50;2.03;;;;;;;;;;5005595;28;20472;-78
2022/08/17 12:39:00;;;;;;;6.47;2.00;;;;;;;;;;5003913;28;20058;-79
2022/08/17 12:41:42;;;;;;;5.43;2.20;;;;;;;;;;5002651;28;20054;-79
2022/08/17 12:44:14;;;;;;;4.25;2.03;;;;;;;;;;4998450;28;20055;-79
2022/08/17 12:46:43;;;;;;;7.38;1.90;;;;;;;;;;5000175;28;20301;-79
2022/08/17 12:49:15;;;;;;;5.78;2.03;;;;;;;;;;5001944;28;20047;-79
2022/08/17 12:51:43;;;;;;;3.00;2.15;;;;;;;;;;4998556;28;20046;-79
2022/08/17 12:54:20;;;;;;;7.30;2.40;;;;;;;;;;5000258;28;20086;-79
2022/08/17 12:56:47;;;;;;;3.70;2.22;;;;;;;;;;5013064;28;20046;-79
2022/08/17 12:59:14;;;;;;;4.40;1.95;;;;;;;;;;5020535;28;20094;-79
2022/08/17 13:01:55;;;;;;;2.80;2.08;;;;;;;;;;5036342;28;20037;-79
2022/08/17 13:04:22;;;;;;;3.58;2.47;;;;;;;;;;5037732;28;20053;-79
2022/08/17 13:06:51;;;;;;;5.25;2.17;;;;;;;;;;5022230;28;20201;-79
2022/08/17 13:09:28;;;;;;;3.65;2.20;;;;;;;;;;5019939;28;20133;-79
2022/08/17 13:12:01;;;;;;;5.75;2.28;;;;;;;;;;5005060;28;20046;-80
2022/08/17 13:14:30;;;;;;;5.53;2.03;;;;;;;;;;5000950;28;20664;-79
2022/08/17 13:17:00;;;;;;;6.55;2.13;;;;;;;;;;5004268;28;20137;-79
2022/08/17 13:19:28;;;;;;;2.35;1.90;;;;;;;;;;5002849;28;20070;-79
2022/08/17 13:22:08;;;;;;;16.33;2.60;;;;;;;;;;4986161;28;20134;-80
2022/08/17 13:24:35;;;;;;;5.63;2.30;;;;;;;;;;5002106;28;20042;-79
2022/08/17 13:27:10;;;;;;;4.75;2.00;;;;;;;;;;4995245;28;20046;-77
2022/08/17 13:29:43;;;;;;;4.82;2.10;;;;;;;;;;4996999;28;20086;-79
2022/08/17 13:32:10;;;;;;;9.27;2.35;;;;;;;;;;4999695;28;20447;-79
2022/08/17 13:34:41;;;;;;;11.10;2.38;;;;;;;;;;5001610;28;20182;-79
2022/08/17 13:37:32;;;;;;;15.18;2.85;;;;;;;;;;5002594;28;20056;-79
2022/08/17 13:40:08;;;;;;;6.45;2.42;;;;;;;;;;4999970;28;20054;-81
2022/08/17 13:42:40;;;;;;;3.22;2.03;;;;;;;;;;5000316;28;20050;-77
2022/08/17 13:45:30;;;;;;;8.65;2.35;;;;;;;;;;4983840;28;20047;-79
2022/08/17 13:48:25;;;;;;;6.80;2.38;;;;;;;;;;4983269;28;20476;-78
2022/08/17 13:50:54;;;;;;;7.57;2.60;;;;;;;;;;5000959;28;20087;-78
2022/08/17 13:53:36;;;;;;;11.45;2.20;;;;;;;;;;5002906;28;20046;-79
2022/08/17 13:56:24;;;;;;;6.32;2.10;;;;;;;;;;5009359;28;20137;-79
2022/08/17 13:59:05;;;;;;;7.93;2.40;;;;;;;;;;5021708;28;20056;-78
2022/08/17 14:01:32;;;;;;;6.95;2.17;;;;;;;;;;5020646;28;20053;-78
2022/08/17 14:04:00;;;;;;;6.22;2.38;;;;;;;;;;5020328;28;20104;-80
2022/08/17 14:06:30;;;;;;;4.63;2.40;;;;;;;;;;5024842;28;20200;-80
2022/08/17 14:09:18;;;;;;;12.20;2.50;;;;;;;;;;5024281;28;20104;-78
2022/08/17 14:11:48;;;;;;;3.85;2.40;;;;;;;;;;5008826;28;20045;-78
2022/08/17 14:14:15;;;;;;;3.92;2.25;;;;;;;;;;5005056;28;20057;-78
2022/08/17 14:16:42;;;;;;;5.15;2.30;;;;;;;;;;5002114;28;20086;-79
2022/08/17 14:19:10;;;;;;;7.28;2.05;;;;;;;;;;5004080;28;20054;-79
2022/08/17 14:21:37;;;;;;;6.60;2.40;;;;;;;;;;5003718;28;20055;-79
2022/08/17 14:24:03;;;;;;;7.32;2.30;;;;;;;;;;5001723;28;20054;-79
2022/08/17 14:26:30;;;;;;;6.07;2.30;;;;;;;;;;4983450;28;20515;-77
2022/08/17 14:28:56;;;;;;;4.00;2.50;;;;;;;;;;4982865;28;20095;-79
2022/08/17 14:31:23;;;;;;;4.63;2.40;;;;;;;;;;4980564;28;20463;-80
2022/08/17 14:33:50;;;;;;;3.35;2.28;;;;;;;;;;5000705;28;20097;-79
2022/08/17 14:36:17;;;;;;;8.48;2.47;;;;;;;;;;4998283;28;20100;-79
2022/08/17 14:38:44;;;;;;;6.75;2.38;;;;;;;;;;4998771;28;20053;-79
2022/08/17 14:41:10;;;;;;;8.55;2.20;;;;;;;;;;4999923;28;20093;-80
2022/08/17 14:43:38;;;;;;;7.22;2.10;;;;;;;;;;4999008;28;20057;-80
2022/08/17 14:46:05;;;;;;;8.57;2.00;;;;;;;;;;5002906;28;20061;-79
2022/08/17 14:48:37;;;;;;;9.40;2.30;;;;;;;;;;5005606;28;20080;-79
2022/08/17 14:51:03;;;;;;;6.57;2.30;;;;;;;;;;5004174;28;20046;-80
2022/08/17 14:53:30;;;;;;;6.90;2.10;;;;;;;;;;5004801;28;20046;-80
2022/08/17 14:55:56;;;;;;;7.30;2.30;;;;;;;;;;5009545;28;20066;-79
2022/08/17 14:58:23;;;;;;;6.45;2.08;;;;;;;;;;5011525;28;20050;-79
2022/08/17 15:00:49;;;;;;;6.97;2.78;;;;;;;;;;5004416;28;20148;-80
2022/08/17 15:03:16;;;;;;;7.72;2.47;;;;;;;;;;4984685;28;20062;-79
2022/08/17 15:05:44;;;;;;;6.95;2.33;;;;;;;;;;4980639;28;20077;-79
2022/08/17 15:08:11;;;;;;;9.63;2.00;;;;;;;;;;5002965;28;20046;-78
2022/08/17 15:10:38;;;;;;;8.25;2.10;;;;;;;;;;5000016;28;20039;-79
2022/08/17 15:13:13;;;;;;;10.45;2.20;;;;;;;;;;5001960;28;20038;-80
2022/08/17 15:15:39;;;;;;;6.57;2.40;;;;;;;;;;5011672;28;20050;-78
2022/08/17 15:18:07;;;;;;;4.50;2.15;;;;;;;;;;5000622;28;20109;-78
2022/08/17 15:20:34;;;;;;;7.60;2.20;;;;;;;;;;4995787;28;20077;-77
2022/08/17 15:23:00;;;;;;;8.05;2.35;;;;;;;;;;4995311;28;20054;-77
2022/08/17 15:25:28;;;;;;;7.18;2.30;;;;;;;;;;4976618;28;20503;-77
2022/08/17 15:27:55;;;;;;;5.95;2.20;;;;;;;;;;4995212;28;20046;-79
2022/08/17 15:30:21;;;;;;;4.32;2.20;;;;;;;;;;4992056;28;20137;-79
2022/08/17 15:32:48;;;;;;;4.60;2.08;;;;;;;;;;4994760;28;20047;-78
2022/08/17 15:35:22;;;;;;;9.80;2.13;;;;;;;;;;4996447;28;20054;-78
2022/08/17 15:37:54;;;;;;;8.00;2.20;;;;;;;;;;4997135;28;20049;-79
2022/08/17 15:40:20;;;;;;;3.10;2.20;;;;;;;;;;4993458;28;20455;-78
2022/08/17 15:42:47;;;;;;;4.38;2.08;;;;;;;;;;4997870;28;20050;-79